createdAt,value
2018-05-16T00:00:31.897Z,99.90
2018-05-16T00:02:59.352Z,99.90
2018-05-16T00:05:26.806Z,99.90
2018-05-16T00:07:54.273Z,99.90
2018-05-16T00:10:22.491Z,99.90
2018-05-16T00:12:49.952Z,99.90
2018-05-16T00:15:17.408Z,99.90
2018-05-16T00:17:44.869Z,99.90
2018-05-16T00:20:12.953Z,99.90
2018-05-16T00:22:40.435Z,99.90
2018-05-16T00:25:08.415Z,99.90
2018-05-16T00:27:35.881Z,99.90
2018-05-16T00:30:04.104Z,99.90
2018-05-16T00:32:31.568Z,99.90
2018-05-16T00:34:59.034Z,99.90
2018-05-16T00:37:26.493Z,99.90
2018-05-16T00:39:54.568Z,99.90
2018-05-16T00:42:22.029Z,99.90
2018-05-16T00:44:49.492Z,99.90
2018-05-16T00:47:17.374Z,99.90
2018-05-16T00:49:45.600Z,99.90
2018-05-16T00:52:13.061Z,99.90
2018-05-16T00:54:41.100Z,99.90
2018-05-16T00:57:08.560Z,99.90
2018-05-16T00:59:36.015Z,99.90
2018-05-16T01:02:03.468Z,99.90
2018-05-16T01:04:30.927Z,99.90
2018-05-16T01:06:58.382Z,99.90
2018-05-16T01:09:25.841Z,99.90
2018-05-16T01:11:54.071Z,99.90
2018-05-16T01:14:22.654Z,99.90
2018-05-16T01:16:50.122Z,99.90
2018-05-16T01:19:17.991Z,99.90
2018-05-16T01:21:45.456Z,99.90
2018-05-16T01:24:12.917Z,99.90
2018-05-16T01:26:41.142Z,99.90
2018-05-16T01:29:09.796Z,99.90
2018-05-16T01:31:37.903Z,99.90
2018-05-16T01:34:05.372Z,99.90
2018-05-16T01:36:32.840Z,99.90
2018-05-16T01:39:00.299Z,99.90
2018-05-16T01:41:27.763Z,99.90
2018-05-16T01:43:55.216Z,99.90
2018-05-16T01:46:22.686Z,99.90
2018-05-16T01:51:54.360Z,99.90
2018-05-16T01:54:21.820Z,99.90
2018-05-16T01:56:49.864Z,99.90
2018-05-16T01:59:17.930Z,99.90
2018-05-16T02:01:45.404Z,99.90
2018-05-16T02:04:12.860Z,99.90
2018-05-16T02:06:40.331Z,99.90
2018-05-16T02:09:07.788Z,99.90
2018-05-16T02:11:36.847Z,99.90
2018-05-16T02:14:04.676Z,99.90
2018-05-16T02:16:32.894Z,99.90
2018-05-16T02:19:00.359Z,99.90
2018-05-16T02:21:28.581Z,99.90
2018-05-16T02:23:56.114Z,99.90
2018-05-16T02:26:23.521Z,99.90
2018-05-16T02:28:50.972Z,99.90
2018-05-16T02:31:18.437Z,99.90
2018-05-16T02:33:45.893Z,99.90
2018-05-16T02:36:13.352Z,99.90
2018-05-16T02:38:40.804Z,99.90
2018-05-16T02:41:08.724Z,99.90
2018-05-16T02:43:36.191Z,99.90
2018-05-16T02:46:04.409Z,99.90
2018-05-16T02:48:31.864Z,99.90
2018-05-16T02:50:59.341Z,99.90
2018-05-16T02:53:26.796Z,99.90
2018-05-16T02:55:54.256Z,99.90
2018-05-16T02:58:22.429Z,99.90
2018-05-16T03:00:49.895Z,99.90
2018-05-16T03:03:17.357Z,99.90
2018-05-16T03:05:45.697Z,99.90
2018-05-16T03:08:13.158Z,99.90
2018-05-16T03:10:40.620Z,99.90
2018-05-16T03:13:08.090Z,99.90
2018-05-16T03:15:36.084Z,99.90
2018-05-16T03:18:03.547Z,99.90
2018-05-16T03:20:31.008Z,99.90
2018-05-16T03:22:59.227Z,99.90
2018-05-16T03:25:26.697Z,99.90
2018-05-16T03:27:54.361Z,99.90
2018-05-16T03:30:21.852Z,99.90
2018-05-16T03:32:49.308Z,99.90
2018-05-16T03:35:17.212Z,99.90
2018-05-16T03:37:44.678Z,99.90
2018-05-16T03:40:12.135Z,99.90
2018-05-16T03:42:39.595Z,99.90
2018-05-16T03:45:07.058Z,99.90
2018-05-16T03:47:35.747Z,99.90
2018-05-16T03:50:03.213Z,99.90
2018-05-16T03:52:30.675Z,99.90
2018-05-16T03:54:58.169Z,99.90
2018-05-16T03:57:38.712Z,99.90
2018-05-16T04:00:17.984Z,99.90
2018-05-16T04:02:57.488Z,99.90
2018-05-16T04:05:25.920Z,99.90
2018-05-16T04:07:53.367Z,99.90
2018-05-16T04:10:20.828Z,99.90
2018-05-16T04:12:48.323Z,99.90
2018-05-16T04:15:15.813Z,99.90
2018-05-16T04:17:43.279Z,99.90
2018-05-16T04:20:11.497Z,99.90
2018-05-16T04:22:38.963Z,99.90
2018-05-16T04:25:06.422Z,99.90
2018-05-16T04:27:33.883Z,99.90
2018-05-16T04:30:01.348Z,99.90
2018-05-16T04:32:28.833Z,99.90
2018-05-16T04:34:57.052Z,99.90
2018-05-16T04:37:24.525Z,99.90
2018-05-16T04:39:51.983Z,99.90
2018-05-16T04:42:19.521Z,99.90
2018-05-16T04:44:46.980Z,99.90
2018-05-16T04:49:48.388Z,99.90
2018-05-16T04:52:15.839Z,99.90
2018-05-16T04:54:43.304Z,99.90
2018-05-16T04:57:10.799Z,99.90
2018-05-16T04:59:39.019Z,99.90
2018-05-16T05:02:06.480Z,99.90
2018-05-16T05:04:33.946Z,99.90
2018-05-16T05:07:01.401Z,99.90
2018-05-16T05:09:28.861Z,99.90
2018-05-16T05:11:56.835Z,99.90
2018-05-16T05:14:25.036Z,99.90
2018-05-16T05:16:53.310Z,99.90
2018-05-16T05:19:21.524Z,99.90
2018-05-16T05:21:49.000Z,99.90
2018-05-16T05:24:17.027Z,99.90
2018-05-16T05:26:44.500Z,99.90
2018-05-16T05:29:11.962Z,99.90
2018-05-16T05:31:39.436Z,99.90
2018-05-16T05:34:06.896Z,99.90
2018-05-16T05:36:34.367Z,99.90
2018-05-16T05:39:02.616Z,99.90
2018-05-16T05:41:30.623Z,99.90
2018-05-16T05:43:58.082Z,99.90
2018-05-16T05:46:25.525Z,99.90
2018-05-16T05:48:53.109Z,99.90
2018-05-16T05:51:21.329Z,99.90
2018-05-16T05:53:48.793Z,99.90
2018-05-16T05:56:16.754Z,99.90
2018-05-16T05:58:44.213Z,99.90
2018-05-16T06:01:11.661Z,99.90
2018-05-16T06:03:39.122Z,99.90
2018-05-16T06:06:06.595Z,99.90
2018-05-16T06:08:34.068Z,99.90
2018-05-16T06:11:03.537Z,99.90
2018-05-16T06:13:33.579Z,99.90
2018-05-16T06:16:01.817Z,99.90
2018-05-16T06:18:29.292Z,99.90
2018-05-16T06:20:56.745Z,99.90
2018-05-16T06:23:24.204Z,99.90
2018-05-16T06:25:51.662Z,99.90
2018-05-16T06:28:19.117Z,99.90
2018-05-16T06:30:46.572Z,99.90
2018-05-16T06:33:14.049Z,99.90
2018-05-16T06:35:41.505Z,99.90
2018-05-16T06:38:08.969Z,99.90
2018-05-16T06:40:36.460Z,99.90
2018-05-16T06:43:04.685Z,99.90
2018-05-16T06:45:32.135Z,99.90
2018-05-16T06:47:59.593Z,99.90
2018-05-16T06:50:27.071Z,99.90
2018-05-16T06:52:54.529Z,99.90
2018-05-16T06:55:21.976Z,99.90
2018-05-16T06:57:50.003Z,99.90
2018-05-16T07:00:17.467Z,99.90
2018-05-16T07:02:44.954Z,99.90
2018-05-16T07:05:12.504Z,99.90
2018-05-16T07:07:39.973Z,99.90
2018-05-16T07:10:08.208Z,99.90
2018-05-16T07:12:36.685Z,99.90
2018-05-16T07:15:04.911Z,99.90
2018-05-16T07:17:32.363Z,99.90
2018-05-16T07:19:59.843Z,99.90
2018-05-16T07:22:27.327Z,99.90
2018-05-16T07:25:02.287Z,99.90
2018-05-16T07:27:29.755Z,99.90
2018-05-16T07:29:57.287Z,99.90
2018-05-16T07:32:25.577Z,99.90
2018-05-16T07:34:53.049Z,99.90
2018-05-16T07:37:20.528Z,99.90
2018-05-16T07:39:48.009Z,99.90
2018-05-16T07:42:15.465Z,99.90
2018-05-16T07:44:42.929Z,99.90
2018-05-16T07:47:10.482Z,99.90
2018-05-16T07:49:37.887Z,99.90
2018-05-16T07:52:05.381Z,99.90
2018-05-16T07:54:32.841Z,99.90
2018-05-16T07:57:00.321Z,99.90
2018-05-16T07:59:28.539Z,99.90
2018-05-16T08:01:56.004Z,99.90
2018-05-16T08:04:23.460Z,99.90
2018-05-16T08:06:53.420Z,99.90
2018-05-16T08:09:20.896Z,99.90
2018-05-16T08:11:49.125Z,99.90
2018-05-16T08:14:16.593Z,99.90
2018-05-16T08:16:44.053Z,99.90
2018-05-16T08:19:11.527Z,99.90
2018-05-16T08:21:38.986Z,99.90
2018-05-16T08:24:07.218Z,99.90
2018-05-16T08:26:34.684Z,99.90
2018-05-16T08:29:03.145Z,99.90
2018-05-16T08:31:30.632Z,99.90
2018-05-16T08:33:58.099Z,99.90
2018-05-16T08:36:26.830Z,99.90
2018-05-16T08:38:54.316Z,99.90
2018-05-16T08:41:21.771Z,99.90
2018-05-16T08:43:49.236Z,99.90
2018-05-16T08:46:16.700Z,99.90
2018-05-16T08:48:44.222Z,99.90
2018-05-16T08:51:11.723Z,99.90
2018-05-16T08:53:39.184Z,99.90
2018-05-16T08:56:06.679Z,99.90
2018-05-16T08:58:34.911Z,99.90
2018-05-16T09:01:02.364Z,99.90
2018-05-16T09:03:29.833Z,99.90
2018-05-16T09:05:57.298Z,99.90
2018-05-16T09:08:24.772Z,99.90
2018-05-16T09:10:53.476Z,99.90
2018-05-16T09:13:21.877Z,99.90
2018-05-16T09:15:49.330Z,99.90
2018-05-16T09:18:16.781Z,99.90
2018-05-16T09:20:44.273Z,99.90
2018-05-16T09:23:11.716Z,99.90
2018-05-16T09:25:39.197Z,99.90
2018-05-16T09:28:07.330Z,99.90
2018-05-16T09:30:35.516Z,98.00
2018-05-16T09:33:03.001Z,97.90
2018-05-16T09:35:30.483Z,96.60
2018-05-16T09:37:58.709Z,94.80
2018-05-16T09:40:26.700Z,94.80
2018-05-16T09:42:54.853Z,96.30
2018-05-16T09:45:23.745Z,93.80
2018-05-16T09:47:51.199Z,93.80
2018-05-16T09:50:19.549Z,93.80
2018-05-16T09:52:46.999Z,93.80
2018-05-16T09:55:14.456Z,93.60
2018-05-16T09:57:41.915Z,93.90
2018-05-16T10:00:09.360Z,94.60
2018-05-16T10:02:37.592Z,96.50
2018-05-16T10:05:08.301Z,96.60
2018-05-16T10:07:35.755Z,97.50
2018-05-16T10:10:03.828Z,97.80
2018-05-16T10:12:33.525Z,96.00
2018-05-16T10:15:02.120Z,96.70
2018-05-16T10:17:29.571Z,96.10
2018-05-16T10:19:57.031Z,96.20
2018-05-16T10:22:24.488Z,97.00
2018-05-16T10:24:52.046Z,96.60
2018-05-16T10:27:19.544Z,98.10
2018-05-16T10:29:46.991Z,98.30
2018-05-16T10:32:14.556Z,98.70
2018-05-16T10:34:42.437Z,98.30
2018-05-16T10:37:10.630Z,98.10
2018-05-16T10:39:38.856Z,99.90
2018-05-16T10:42:06.360Z,99.80
2018-05-16T10:44:34.607Z,98.70
2018-05-16T10:47:03.840Z,98.80
2018-05-16T10:49:32.225Z,96.00
2018-05-16T10:52:00.439Z,93.70
2018-05-16T10:54:27.923Z,93.70
2018-05-16T10:56:56.798Z,94.60
2018-05-16T10:59:24.531Z,95.00
2018-05-16T11:01:52.027Z,95.10
2018-05-16T11:04:19.800Z,95.80
2018-05-16T11:06:47.248Z,96.60
2018-05-16T11:09:16.221Z,92.70
2018-05-16T11:11:45.119Z,92.70
2018-05-16T11:14:12.576Z,93.30
2018-05-16T11:16:40.478Z,90.90
2018-05-16T11:19:08.008Z,90.40
2018-05-16T11:21:35.582Z,88.80
2018-05-16T11:24:03.031Z,90.60
2018-05-16T11:26:30.483Z,89.60
2018-05-16T11:28:57.944Z,87.40
2018-05-16T11:31:25.404Z,87.90
2018-05-16T11:33:53.648Z,88.30
2018-05-16T11:36:21.140Z,88.20
2018-05-16T11:38:48.691Z,88.40
2018-05-16T11:41:16.151Z,85.70
2018-05-16T11:43:43.997Z,85.30
2018-05-16T11:46:11.768Z,78.60
2018-05-16T11:48:39.229Z,77.80
2018-05-16T11:51:07.479Z,79.40
2018-05-16T11:53:35.529Z,80.90
2018-05-16T11:56:03.048Z,80.90
2018-05-16T11:58:30.566Z,80.20
2018-05-16T12:00:58.157Z,77.10
2018-05-16T12:03:25.613Z,75.60
2018-05-16T12:05:53.060Z,79.10
2018-05-16T12:08:20.537Z,77.50
2018-05-16T12:10:47.996Z,80.40
2018-05-16T12:13:15.563Z,82.50
2018-05-16T12:15:43.218Z,85.80
2018-05-16T12:18:10.691Z,85.00
2018-05-16T12:20:38.917Z,82.80
2018-05-16T12:23:06.379Z,83.50
2018-05-16T12:25:33.820Z,78.40
2018-05-16T12:28:01.332Z,82.40
2018-05-16T12:30:28.888Z,82.90
2018-05-16T12:32:56.336Z,86.10
2018-05-16T12:35:23.792Z,79.90
2018-05-16T12:37:51.250Z,78.20
2018-05-16T12:40:19.131Z,77.40
2018-05-16T12:42:59.437Z,73.50
2018-05-16T12:45:27.522Z,73.50
2018-05-16T12:47:54.975Z,72.50
2018-05-16T12:50:22.468Z,70.80
2018-05-16T12:52:49.908Z,72.30
2018-05-16T12:55:17.599Z,69.20
2018-05-16T12:57:45.145Z,70.60
2018-05-16T13:00:13.017Z,71.80
2018-05-16T13:02:40.485Z,73.30
2018-05-16T13:05:07.923Z,72.40
2018-05-16T13:07:35.394Z,72.40
2018-05-16T13:10:02.848Z,73.80
2018-05-16T13:12:30.296Z,73.40
2018-05-16T13:14:57.745Z,72.70
2018-05-16T13:17:25.208Z,73.80
2018-05-16T13:19:52.660Z,74.70
2018-05-16T13:22:20.564Z,74.80
2018-05-16T13:24:48.775Z,74.60
2018-05-16T13:27:16.232Z,74.70
2018-05-16T13:29:43.697Z,74.30
2018-05-16T13:32:11.145Z,73.30
2018-05-16T13:34:38.617Z,72.80
2018-05-16T13:37:06.068Z,73.60
2018-05-16T13:39:33.524Z,73.00
2018-05-16T13:42:00.994Z,74.30
2018-05-16T13:44:28.479Z,73.00
2018-05-16T13:46:56.782Z,72.80
2018-05-16T13:49:24.459Z,72.60
2018-05-16T13:51:51.916Z,72.70
2018-05-16T13:54:19.373Z,69.00
2018-05-16T13:56:48.117Z,69.20
2018-05-16T13:59:15.569Z,70.90
2018-05-16T14:01:43.547Z,69.90
2018-05-16T14:04:10.944Z,71.30
2018-05-16T14:06:38.452Z,70.00
2018-05-16T14:09:05.912Z,69.90
2018-05-16T14:11:33.361Z,68.30
2018-05-16T14:14:00.826Z,66.30
2018-05-16T14:16:29.087Z,65.80
2018-05-16T14:18:56.567Z,65.60
2018-05-16T14:21:24.792Z,60.40
2018-05-16T14:23:52.319Z,60.40
2018-05-16T14:26:19.720Z,63.10
2018-05-16T14:28:49.109Z,63.90
2018-05-16T14:31:17.010Z,67.10
2018-05-16T14:33:44.476Z,69.30
2018-05-16T14:36:11.933Z,72.80
2018-05-16T14:38:39.392Z,72.10
2018-05-16T14:41:06.846Z,74.70
2018-05-16T14:43:34.320Z,74.30
2018-05-16T14:46:02.540Z,72.60
2018-05-16T14:48:30.019Z,72.60
2018-05-16T14:50:57.541Z,73.80
2018-05-16T14:53:24.991Z,75.70
2018-05-16T14:55:52.440Z,82.50
2018-05-16T14:58:20.608Z,92.00
2018-05-16T15:00:48.493Z,98.60
2018-05-16T15:03:15.943Z,99.90
2018-05-16T15:05:43.411Z,99.90
2018-05-16T15:08:10.896Z,99.90
2018-05-16T15:10:38.358Z,99.90
2018-05-16T15:13:06.574Z,99.90
2018-05-16T15:15:34.816Z,99.90
2018-05-16T15:18:02.326Z,99.90
2018-05-16T15:20:31.629Z,99.90
2018-05-16T15:22:59.548Z,99.90
2018-05-16T15:25:27.000Z,99.90
2018-05-16T15:27:54.462Z,99.90
2018-05-16T15:30:24.468Z,99.90
2018-05-16T15:32:51.933Z,99.90
2018-05-16T15:35:20.189Z,99.90
2018-05-16T15:37:47.635Z,99.90
2018-05-16T15:40:15.308Z,99.90
2018-05-16T15:42:43.198Z,99.90
2018-05-16T15:45:10.671Z,99.90
2018-05-16T15:47:38.504Z,99.90
2018-05-16T15:50:05.999Z,99.90
2018-05-16T15:52:34.640Z,99.90
2018-05-16T15:55:02.113Z,99.90
2018-05-16T15:57:29.957Z,99.90
2018-05-16T15:59:57.819Z,99.90
2018-05-16T16:02:25.280Z,99.90
2018-05-16T16:04:53.507Z,99.90
2018-05-16T16:07:23.210Z,99.60
2018-05-16T16:09:52.132Z,99.10
2018-05-16T16:12:19.576Z,99.00
2018-05-16T16:14:47.040Z,95.00
2018-05-16T16:17:14.512Z,94.20
2018-05-16T16:19:41.966Z,91.70
2018-05-16T16:22:09.425Z,90.00
2018-05-16T16:24:36.884Z,88.80
2018-05-16T16:27:04.349Z,87.10
2018-05-16T16:29:31.800Z,85.50
2018-05-16T16:31:59.289Z,88.80
2018-05-16T16:34:27.169Z,90.10
2018-05-16T16:36:54.656Z,91.00
2018-05-16T16:39:22.895Z,93.70
2018-05-16T16:41:50.788Z,93.70
2018-05-16T16:44:19.162Z,95.30
2018-05-16T16:46:47.383Z,96.60
2018-05-16T16:49:14.836Z,96.60
2018-05-16T16:51:43.055Z,98.00
2018-05-16T16:54:10.500Z,99.40
2018-05-16T16:56:37.988Z,99.90
2018-05-16T16:59:06.216Z,99.90
2018-05-16T17:01:33.672Z,99.90
2018-05-16T17:04:01.565Z,99.90
2018-05-16T17:06:29.012Z,99.90
2018-05-16T17:08:56.921Z,99.90
2018-05-16T17:11:24.457Z,99.90
2018-05-16T17:13:53.179Z,99.90
2018-05-16T17:16:20.717Z,99.30
2018-05-16T17:18:48.489Z,99.70
2018-05-16T17:21:17.235Z,99.90
2018-05-16T17:23:44.682Z,99.90
2018-05-16T17:26:12.139Z,99.90
2018-05-16T17:28:40.155Z,99.90
2018-05-16T17:31:08.379Z,99.90
2018-05-16T17:33:38.211Z,99.90
2018-05-16T17:36:05.952Z,99.90
2018-05-16T17:38:33.815Z,99.90
2018-05-16T17:41:01.276Z,99.90
2018-05-16T17:43:29.184Z,99.90
2018-05-16T17:45:57.438Z,99.90
2018-05-16T17:48:24.874Z,99.90
2018-05-16T17:50:53.233Z,99.90
2018-05-16T17:53:20.969Z,99.90
2018-05-16T17:55:49.175Z,99.90
2018-05-16T17:58:17.248Z,99.90
2018-05-16T18:00:44.704Z,99.90
2018-05-16T18:03:12.159Z,99.90
2018-05-16T18:05:39.606Z,99.90
2018-05-16T18:08:07.427Z,99.90
2018-05-16T18:10:35.412Z,99.90
2018-05-16T18:16:29.835Z,99.90
2018-05-16T18:18:58.071Z,99.90
2018-05-16T18:21:25.958Z,99.90
2018-05-16T18:23:53.417Z,99.90
2018-05-16T18:26:21.649Z,99.90
2018-05-16T18:28:49.113Z,99.90
2018-05-16T18:31:16.572Z,99.90
2018-05-16T18:33:44.038Z,99.90
2018-05-16T18:36:12.063Z,99.90
2018-05-16T18:38:40.302Z,99.90
2018-05-16T18:41:07.761Z,99.90
2018-05-16T18:43:35.234Z,99.90
2018-05-16T18:46:04.084Z,99.90
2018-05-16T18:48:32.136Z,99.90
2018-05-16T18:50:59.597Z,99.90
2018-05-16T18:53:27.076Z,99.90
2018-05-16T18:55:54.961Z,99.90
2018-05-16T18:58:22.417Z,99.90
2018-05-16T19:00:49.871Z,99.90
2018-05-16T19:03:19.817Z,99.90
2018-05-16T19:05:47.387Z,99.90
2018-05-16T19:08:14.757Z,99.90
2018-05-16T19:10:42.272Z,99.90
2018-05-16T19:13:09.736Z,99.90
2018-05-16T19:15:37.977Z,99.90
2018-05-16T19:18:05.413Z,99.90
2018-05-16T19:20:32.880Z,99.90
2018-05-16T19:23:00.362Z,99.90
2018-05-16T19:25:28.090Z,99.90
2018-05-16T19:27:55.641Z,99.90
2018-05-16T19:30:23.093Z,99.90
2018-05-16T19:32:50.667Z,99.90
2018-05-16T19:35:18.055Z,99.90
2018-05-16T19:37:46.645Z,99.90
2018-05-16T19:40:14.093Z,99.90
2018-05-16T19:42:41.574Z,99.90
2018-05-16T19:45:10.380Z,99.90
2018-05-16T19:47:39.465Z,99.90
2018-05-16T19:50:07.693Z,99.90
2018-05-16T19:52:35.155Z,99.90
2018-05-16T19:55:02.618Z,99.90
2018-05-16T19:57:30.072Z,99.90
2018-05-16T19:59:57.519Z,99.90
2018-05-16T20:02:24.996Z,99.90
2018-05-16T20:04:52.892Z,99.90
2018-05-16T20:07:21.789Z,99.90
2018-05-16T20:09:50.033Z,99.90
2018-05-16T20:12:20.659Z,99.90
2018-05-16T20:14:48.220Z,99.90
2018-05-16T20:17:15.576Z,99.90
2018-05-16T20:19:43.033Z,99.90
2018-05-16T20:22:10.507Z,99.90
2018-05-16T20:24:38.732Z,99.90
2018-05-16T20:27:06.206Z,99.90
2018-05-16T20:29:33.679Z,99.90
2018-05-16T20:32:01.130Z,99.90
2018-05-16T20:34:28.583Z,99.90
2018-05-16T20:36:56.049Z,99.90
2018-05-16T20:39:23.503Z,99.90
2018-05-16T20:41:51.005Z,99.90
2018-05-16T20:44:18.927Z,99.90
2018-05-16T20:46:46.396Z,99.90
2018-05-16T20:49:14.243Z,99.90
2018-05-16T20:51:42.015Z,99.90
2018-05-16T20:54:09.468Z,99.90
2018-05-16T20:56:36.927Z,99.90
2018-05-16T20:59:04.599Z,99.90
2018-05-16T21:01:32.112Z,99.90
2018-05-16T21:04:00.166Z,99.90
2018-05-16T21:06:28.634Z,99.90
2018-05-16T21:08:56.848Z,99.90
2018-05-16T21:11:26.156Z,99.90
2018-05-16T21:13:53.621Z,99.90
2018-05-16T21:16:21.072Z,99.90
2018-05-16T21:18:48.552Z,99.90
2018-05-16T21:21:16.004Z,99.90
2018-05-16T21:23:43.455Z,99.90
2018-05-16T21:26:10.914Z,99.90
2018-05-16T21:28:38.468Z,99.90
2018-05-16T21:31:06.624Z,99.90
2018-05-16T21:33:34.078Z,99.90
2018-05-16T21:36:02.533Z,99.90
2018-05-16T21:38:29.997Z,99.90
2018-05-16T21:40:57.443Z,99.90
2018-05-16T21:43:24.900Z,99.90
2018-05-16T21:45:52.358Z,99.90
2018-05-16T21:48:20.575Z,99.90
2018-05-16T21:50:48.436Z,99.90
2018-05-16T21:53:16.615Z,99.90
2018-05-16T21:55:44.073Z,99.90
2018-05-16T21:58:11.527Z,99.90
2018-05-16T22:00:39.754Z,99.90
2018-05-16T22:03:07.975Z,99.90
2018-05-16T22:05:35.436Z,99.90
2018-05-16T22:08:03.936Z,99.90
2018-05-16T22:10:31.437Z,99.90
2018-05-16T22:12:58.871Z,99.90
2018-05-16T22:15:27.113Z,99.90
2018-05-16T22:17:54.563Z,99.90
2018-05-16T22:20:22.042Z,99.90
2018-05-16T22:22:49.520Z,99.90
2018-05-16T22:25:16.962Z,99.90
2018-05-16T22:27:44.418Z,99.90
2018-05-16T22:30:11.379Z,99.90
2018-05-16T22:32:45.388Z,99.90
2018-05-16T22:35:19.320Z,99.90
2018-05-16T22:37:53.504Z,99.90
2018-05-16T22:40:27.333Z,99.90
2018-05-16T22:42:55.074Z,99.90
2018-05-16T22:48:27.334Z,99.90
2018-05-16T22:50:54.779Z,99.90
2018-05-16T22:53:22.261Z,99.90
2018-05-16T22:55:49.716Z,99.90
2018-05-16T22:58:17.169Z,99.90
2018-05-16T23:00:44.647Z,99.90
2018-05-16T23:03:12.099Z,99.90
2018-05-16T23:05:39.554Z,99.90
2018-05-16T23:08:07.015Z,99.90
2018-05-16T23:10:34.480Z,99.90
2018-05-16T23:13:01.939Z,99.90
2018-05-16T23:15:29.404Z,99.90
2018-05-16T23:17:57.626Z,99.90
2018-05-16T23:20:25.064Z,99.90
2018-05-16T23:22:52.529Z,99.90
2018-05-16T23:25:19.980Z,99.90
2018-05-16T23:27:47.444Z,99.90
2018-05-16T23:30:14.896Z,99.90
2018-05-16T23:32:42.367Z,99.90
2018-05-16T23:35:09.822Z,99.90
2018-05-16T23:37:37.289Z,99.90
2018-05-16T23:40:04.749Z,99.90
2018-05-16T23:42:32.209Z,99.90
2018-05-16T23:44:59.788Z,99.90
2018-05-16T23:47:27.258Z,99.90
2018-05-16T23:49:55.487Z,99.90
2018-05-16T23:52:24.267Z,99.90
2018-05-16T23:54:52.147Z,99.90
2018-05-16T23:57:19.609Z,99.90
2018-05-16T23:59:47.355Z,99.90
